South Madison, Ohio
Current Conditions -  °F | °C
As of 4:53 PM on Thursday 18 Dec 2014 (Local Time) from KHZY Reporting Station
Overcast Overcast  
Wind Chill: 24°   Ceiling: 1500
Heat Index: 30°   Visibility: 10mi
Dew Point: 26°   Wind: 6mph
Humidity: 85%   Direction: 270°W
Pressure: 30.14"   Gusts: NA
Location:  41.7879°N, 81.0546°W
Report Text: KHZY 182153Z AUTO 27005KT 10SM OVC015 M01/M03 A3014 RMK AO2 SNB13E22 SLP218 P0000 T10111033
Loading
Personal Weather Stations






























Interactive Weather Map New forecast layout! Learn more

10-Day Weather Forecast

Advertisements
Track Severe Weather on mobile